createdAt,value
2018-11-29T00:02:10.029Z,100.00
2018-11-29T00:04:40.707Z,100.00
2018-11-29T00:07:14.923Z,100.00
2018-11-29T00:09:48.859Z,100.00
2018-11-29T00:12:20.590Z,100.00
2018-11-29T00:14:52.411Z,100.00
2018-11-29T00:17:24.467Z,100.00
2018-11-29T00:19:55.263Z,100.00
2018-11-29T00:22:27.084Z,100.00
2018-11-29T00:24:58.604Z,100.00
2018-11-29T00:27:29.631Z,100.00
2018-11-29T00:29:59.960Z,100.00
2018-11-29T00:32:32.545Z,100.00
2018-11-29T00:35:03.684Z,100.00
2018-11-29T00:37:35.778Z,100.00
2018-11-29T00:40:19.517Z,100.00
2018-11-29T00:42:51.581Z,100.00
2018-11-29T00:45:24.944Z,100.00
2018-11-29T00:47:56.798Z,100.00
2018-11-29T00:50:30.097Z,100.00
2018-11-29T00:53:04.490Z,100.00
2018-11-29T00:55:33.922Z,100.00
2018-11-29T00:58:04.255Z,100.00
2018-11-29T01:00:35.157Z,100.00
2018-11-29T01:03:05.199Z,100.00
2018-11-29T01:05:36.545Z,100.00
2018-11-29T01:08:09.774Z,100.00
2018-11-29T01:10:43.943Z,100.00
2018-11-29T01:13:14.515Z,100.00
2018-11-29T01:15:44.578Z,100.00
2018-11-29T01:18:18.197Z,100.00
2018-11-29T01:20:47.631Z,100.00
2018-11-29T01:23:19.280Z,100.00
2018-11-29T01:25:50.118Z,100.00
2018-11-29T01:28:22.395Z,100.00
2018-11-29T01:30:53.090Z,100.00
2018-11-29T01:33:25.769Z,100.00
2018-11-29T01:35:58.626Z,100.00
2018-11-29T01:38:30.919Z,100.00
2018-11-29T01:41:01.546Z,100.00
2018-11-29T01:43:31.817Z,100.00
2018-11-29T01:46:01.490Z,100.00
2018-11-29T01:48:32.902Z,100.00
2018-11-29T01:51:05.572Z,100.00
2018-11-29T01:53:39.285Z,100.00
2018-11-29T01:56:10.957Z,100.00
2018-11-29T01:58:43.029Z,100.00
2018-11-29T02:01:13.767Z,100.00
2018-11-29T02:03:43.955Z,100.00
2018-11-29T02:08:55.198Z,100.00
2018-11-29T02:11:27.438Z,100.00
2018-11-29T02:13:56.744Z,100.00
2018-11-29T02:16:28.915Z,100.00
2018-11-29T02:18:59.873Z,100.00
2018-11-29T02:21:31.944Z,100.00
2018-11-29T02:24:02.148Z,100.00
2018-11-29T02:26:32.456Z,100.00
2018-11-29T02:29:04.380Z,100.00
2018-11-29T02:31:36.550Z,100.00
2018-11-29T02:34:11.287Z,100.00
2018-11-29T02:36:42.796Z,100.00
2018-11-29T02:39:12.981Z,100.00
2018-11-29T02:41:42.387Z,100.00
2018-11-29T02:44:13.022Z,100.00
2018-11-29T02:46:43.287Z,100.00
2018-11-29T02:49:13.407Z,100.00
2018-11-29T02:51:44.152Z,100.00
2018-11-29T02:54:14.209Z,100.00
2018-11-29T02:56:44.763Z,100.00
2018-11-29T02:59:15.166Z,100.00
2018-11-29T03:01:45.382Z,100.00
2018-11-29T03:04:16.464Z,100.00
2018-11-29T03:06:47.257Z,100.00
2018-11-29T03:09:18.131Z,100.00
2018-11-29T03:11:48.113Z,100.00
2018-11-29T03:14:18.740Z,100.00
2018-11-29T03:16:49.270Z,100.00
2018-11-29T03:19:20.121Z,100.00
2018-11-29T03:21:51.232Z,100.00
2018-11-29T03:24:23.284Z,100.00
2018-11-29T03:26:54.182Z,100.00
2018-11-29T03:29:24.680Z,100.00
2018-11-29T03:31:54.950Z,100.00
2018-11-29T03:34:24.957Z,100.00
2018-11-29T03:37:57.698Z,100.00
2018-11-29T03:40:28.227Z,100.00
2018-11-29T03:42:59.062Z,100.00
2018-11-29T03:45:30.386Z,100.00
2018-11-29T03:48:00.733Z,100.00
2018-11-29T03:50:31.249Z,100.00
2018-11-29T03:53:01.730Z,100.00
2018-11-29T03:55:32.668Z,100.00
2018-11-29T03:58:02.741Z,100.00
2018-11-29T04:00:33.267Z,100.00
2018-11-29T04:03:03.368Z,100.00
2018-11-29T04:05:33.817Z,100.00
2018-11-29T04:08:04.239Z,100.00
2018-11-29T04:10:33.831Z,100.00
2018-11-29T04:13:05.094Z,100.00
2018-11-29T04:15:35.616Z,100.00
2018-11-29T04:18:06.775Z,100.00
2018-11-29T04:20:37.144Z,100.00
2018-11-29T04:23:07.850Z,100.00
2018-11-29T04:25:37.412Z,100.00
2018-11-29T04:28:07.958Z,100.00
2018-11-29T04:30:38.379Z,100.00
2018-11-29T04:33:08.609Z,100.00
2018-11-29T04:35:38.649Z,100.00
2018-11-29T04:38:09.452Z,100.00
2018-11-29T04:40:40.487Z,100.00
2018-11-29T04:43:11.945Z,100.00
2018-11-29T04:45:52.616Z,100.00
2018-11-29T04:48:25.856Z,100.00
2018-11-29T04:50:59.032Z,100.00
2018-11-29T04:53:30.938Z,100.00
2018-11-29T04:56:01.587Z,100.00
2018-11-29T04:58:39.195Z,100.00
2018-11-29T05:04:08.089Z,100.00
2018-11-29T05:06:39.326Z,100.00
2018-11-29T05:09:13.673Z,100.00
2018-11-29T05:11:44.770Z,100.00
2018-11-29T05:14:16.034Z,100.00
2018-11-29T05:16:46.720Z,100.00
2018-11-29T05:19:20.557Z,100.00
2018-11-29T05:21:58.541Z,100.00
2018-11-29T05:24:29.788Z,100.00
2018-11-29T05:27:01.163Z,100.00
2018-11-29T05:29:34.176Z,100.00
2018-11-29T05:32:11.029Z,100.00
2018-11-29T05:34:41.250Z,100.00
2018-11-29T05:37:12.431Z,100.00
2018-11-29T05:39:44.045Z,100.00
2018-11-29T05:42:13.798Z,100.00
2018-11-29T05:44:44.786Z,100.00
2018-11-29T05:47:19.815Z,100.00
2018-11-29T05:49:52.322Z,100.00
2018-11-29T05:52:23.001Z,100.00
2018-11-29T05:54:54.786Z,100.00
2018-11-29T05:57:25.231Z,100.00
2018-11-29T05:59:58.550Z,100.00
2018-11-29T06:02:29.604Z,100.00
2018-11-29T06:05:01.304Z,100.00
2018-11-29T06:07:33.252Z,100.00
2018-11-29T06:10:04.709Z,100.00
2018-11-29T06:12:37.659Z,100.00
2018-11-29T06:15:11.640Z,100.00
2018-11-29T06:17:43.062Z,99.84
2018-11-29T06:20:17.759Z,99.33
2018-11-29T06:22:51.567Z,99.02
2018-11-29T06:25:22.122Z,99.54
2018-11-29T06:27:53.469Z,97.02
2018-11-29T06:30:23.858Z,98.80
2018-11-29T06:32:55.505Z,97.82
2018-11-29T06:35:26.893Z,98.38
2018-11-29T06:37:56.841Z,97.65
2018-11-29T06:40:27.339Z,97.30
2018-11-29T06:42:56.431Z,96.50
2018-11-29T06:45:26.660Z,96.41
2018-11-29T06:47:57.588Z,95.37
2018-11-29T06:50:34.978Z,94.93
2018-11-29T06:54:14.428Z,95.71
2018-11-29T06:56:45.688Z,95.69
2018-11-29T06:59:14.346Z,95.27
2018-11-29T07:01:45.284Z,93.62
2018-11-29T07:04:15.099Z,94.35
2018-11-29T07:06:46.555Z,93.44
2018-11-29T07:09:18.418Z,93.71
2018-11-29T07:11:51.401Z,92.83
2018-11-29T07:14:22.595Z,93.15
2018-11-29T07:16:55.738Z,93.53
2018-11-29T07:19:54.957Z,92.99
2018-11-29T07:22:27.666Z,93.85
2018-11-29T07:24:57.415Z,91.92
2018-11-29T07:27:27.915Z,91.63
2018-11-29T07:31:02.294Z,91.90
2018-11-29T07:33:33.004Z,91.44
2018-11-29T07:36:05.070Z,90.86
2018-11-29T07:38:37.656Z,90.65
2018-11-29T07:41:08.513Z,90.46
2018-11-29T07:43:41.965Z,90.75
2018-11-29T07:46:12.889Z,88.74
2018-11-29T07:48:44.058Z,88.54
2018-11-29T07:51:17.221Z,88.87
2018-11-29T07:53:49.978Z,88.29
2018-11-29T07:56:21.782Z,88.41
2018-11-29T07:58:58.508Z,87.15
2018-11-29T08:01:30.419Z,86.67
2018-11-29T08:04:00.470Z,86.34
2018-11-29T08:06:30.694Z,86.03
2018-11-29T08:09:01.285Z,85.42
2018-11-29T08:11:32.649Z,85.21
2018-11-29T08:14:07.318Z,85.08
2018-11-29T08:16:37.645Z,85.19
2018-11-29T08:19:07.595Z,84.76
2018-11-29T08:21:38.718Z,82.89
2018-11-29T08:24:09.786Z,82.52
2018-11-29T08:26:41.903Z,81.75
2018-11-29T08:29:12.383Z,81.48
2018-11-29T08:31:45.914Z,80.93
2018-11-29T08:34:17.641Z,79.55
2018-11-29T08:36:52.046Z,79.18
2018-11-29T08:39:23.299Z,77.83
2018-11-29T08:41:54.604Z,78.21
2018-11-29T08:44:24.863Z,78.09
2018-11-29T08:46:55.289Z,77.06
2018-11-29T08:49:28.107Z,77.24
2018-11-29T08:51:59.732Z,78.90
2018-11-29T08:54:30.878Z,78.03
2018-11-29T08:57:03.396Z,78.54
2018-11-29T08:59:33.403Z,77.48
2018-11-29T09:02:06.652Z,76.63
2018-11-29T09:04:38.511Z,76.96
2018-11-29T09:07:11.086Z,76.69
2018-11-29T09:09:45.170Z,76.66
2018-11-29T09:12:15.967Z,76.59
2018-11-29T09:14:47.891Z,75.99
2018-11-29T09:17:21.018Z,76.00
2018-11-29T09:19:53.646Z,75.23
2018-11-29T09:22:25.181Z,74.46
2018-11-29T09:24:57.422Z,74.91
2018-11-29T09:27:28.419Z,73.55
2018-11-29T09:29:59.765Z,69.98
2018-11-29T09:32:31.932Z,69.20
2018-11-29T09:35:02.563Z,69.21
2018-11-29T09:37:35.259Z,68.84
2018-11-29T09:40:06.960Z,68.53
2018-11-29T09:42:37.327Z,67.09
2018-11-29T09:45:11.523Z,67.24
2018-11-29T09:47:41.863Z,65.40
2018-11-29T09:50:15.557Z,64.05
2018-11-29T09:52:45.578Z,65.61
2018-11-29T09:55:20.005Z,66.63
2018-11-29T09:57:51.033Z,67.08
2018-11-29T10:00:27.986Z,67.50
2018-11-29T10:03:10.664Z,67.36
2018-11-29T10:05:46.372Z,66.10
2018-11-29T10:08:18.723Z,65.23
2018-11-29T10:10:49.177Z,66.13
2018-11-29T10:13:21.418Z,65.78
2018-11-29T10:15:53.271Z,64.49
2018-11-29T10:18:25.069Z,57.98
2018-11-29T10:21:00.906Z,56.03
2018-11-29T10:23:32.812Z,55.36
2018-11-29T10:26:03.609Z,55.18
2018-11-29T10:28:34.651Z,53.79
2018-11-29T10:31:09.538Z,57.05
2018-11-29T10:33:41.706Z,58.23
2018-11-29T10:36:14.317Z,56.30
2018-11-29T10:38:44.750Z,54.37
2018-11-29T10:41:22.272Z,55.90
2018-11-29T10:43:54.922Z,56.12
2018-11-29T10:46:27.676Z,56.27
2018-11-29T10:49:00.349Z,56.60
2018-11-29T10:54:10.925Z,57.97
2018-11-29T10:56:41.169Z,58.12
2018-11-29T10:59:14.610Z,58.59
2018-11-29T11:01:54.859Z,57.53
2018-11-29T11:04:26.486Z,56.00
2018-11-29T11:06:57.169Z,55.94
2018-11-29T11:09:33.500Z,56.69
2018-11-29T11:12:03.561Z,54.50
2018-11-29T11:14:36.397Z,54.19
2018-11-29T11:17:10.270Z,54.21
2018-11-29T11:19:47.187Z,54.58
2018-11-29T11:22:23.631Z,57.09
2018-11-29T11:24:54.672Z,57.02
2018-11-29T11:27:28.298Z,57.75
2018-11-29T11:30:02.833Z,56.21
2018-11-29T11:32:33.756Z,56.35
2018-11-29T11:35:07.519Z,56.07
2018-11-29T11:37:38.464Z,55.48
2018-11-29T11:40:11.137Z,55.44
2018-11-29T11:42:42.513Z,55.70
2018-11-29T11:45:19.098Z,56.04
2018-11-29T11:47:52.759Z,55.79
2018-11-29T11:50:30.574Z,54.86
2018-11-29T11:53:03.910Z,53.58
2018-11-29T11:55:37.989Z,53.04
2018-11-29T11:58:10.962Z,52.39
2018-11-29T12:00:45.724Z,52.87
2018-11-29T12:03:18.764Z,52.59
2018-11-29T12:05:53.401Z,53.62
2018-11-29T12:08:29.488Z,53.77
2018-11-29T12:11:08.897Z,54.79
2018-11-29T12:13:39.004Z,55.73
2018-11-29T12:16:10.819Z,55.51
2018-11-29T12:18:47.038Z,55.88
2018-11-29T12:21:19.895Z,56.21
2018-11-29T12:23:51.405Z,55.66
2018-11-29T12:26:24.760Z,57.19
2018-11-29T12:28:58.258Z,55.56
2018-11-29T12:31:33.468Z,54.74
2018-11-29T12:34:06.685Z,55.19
2018-11-29T12:36:38.479Z,55.66
2018-11-29T12:39:11.497Z,55.71
2018-11-29T12:41:51.633Z,55.31
2018-11-29T12:44:22.955Z,54.90
2018-11-29T12:46:59.126Z,54.01
2018-11-29T12:49:30.492Z,54.63
2018-11-29T12:52:07.284Z,55.53
2018-11-29T12:54:38.360Z,55.40
2018-11-29T12:57:17.098Z,54.63
2018-11-29T12:59:50.605Z,55.38
2018-11-29T13:02:29.557Z,55.31
2018-11-29T13:05:02.543Z,54.35
2018-11-29T13:07:35.203Z,53.60
2018-11-29T13:10:12.020Z,53.73
2018-11-29T13:12:48.618Z,51.98
2018-11-29T13:15:28.822Z,52.09
2018-11-29T13:18:14.458Z,51.41
2018-11-29T13:23:42.720Z,51.18
2018-11-29T13:26:14.705Z,51.75
2018-11-29T13:28:49.050Z,51.60
2018-11-29T13:31:20.568Z,51.26
2018-11-29T13:33:52.638Z,51.45
2018-11-29T13:36:27.960Z,52.03
2018-11-29T13:38:59.408Z,52.54
2018-11-29T13:41:33.141Z,52.67
2018-11-29T13:44:05.504Z,52.17
2018-11-29T13:46:41.678Z,52.75
2018-11-29T13:49:15.691Z,51.93
2018-11-29T13:51:59.535Z,52.35
2018-11-29T13:54:30.972Z,53.36
2018-11-29T13:57:03.698Z,53.33
2018-11-29T13:59:37.913Z,53.33
2018-11-29T14:02:09.810Z,54.17
2018-11-29T14:04:45.069Z,53.76
2018-11-29T14:10:05.395Z,54.97
2018-11-29T14:12:38.724Z,54.61
2018-11-29T14:15:28.974Z,54.47
2018-11-29T14:18:05.824Z,55.07
2018-11-29T14:20:42.095Z,55.27
2018-11-29T14:23:16.043Z,55.12
2018-11-29T14:25:49.695Z,54.04
2018-11-29T14:28:22.375Z,54.39
2018-11-29T14:30:56.895Z,54.68
2018-11-29T14:33:28.431Z,54.10
2018-11-29T14:36:06.689Z,54.20
2018-11-29T14:38:45.493Z,54.89
2018-11-29T14:41:21.034Z,54.46
2018-11-29T14:43:55.601Z,54.56
2018-11-29T14:46:28.449Z,54.40
2018-11-29T14:49:05.253Z,53.69
2018-11-29T14:51:39.619Z,53.92
2018-11-29T14:54:11.181Z,54.94
2018-11-29T14:56:44.168Z,54.42
2018-11-29T14:59:19.401Z,54.02
2018-11-29T15:01:53.043Z,54.79
2018-11-29T15:04:26.836Z,54.09
2018-11-29T15:07:01.756Z,55.10
2018-11-29T15:09:38.723Z,54.60
2018-11-29T15:12:13.958Z,54.81
2018-11-29T15:14:47.031Z,54.33
2018-11-29T15:17:21.312Z,55.43
2018-11-29T15:19:52.201Z,54.73
2018-11-29T15:22:24.712Z,54.38
2018-11-29T15:24:58.580Z,53.95
2018-11-29T15:27:33.007Z,54.77
2018-11-29T15:30:08.649Z,55.36
2018-11-29T15:32:39.617Z,53.99
2018-11-29T15:35:11.122Z,54.70
2018-11-29T15:37:45.053Z,54.28
2018-11-29T15:40:25.136Z,54.27
2018-11-29T15:42:57.213Z,55.44
2018-11-29T15:45:29.734Z,54.63
2018-11-29T15:48:06.407Z,55.21
2018-11-29T15:50:39.307Z,55.27
2018-11-29T15:53:15.574Z,54.72
2018-11-29T15:55:46.548Z,55.40
2018-11-29T15:58:20.918Z,54.51
2018-11-29T16:00:58.651Z,54.35
2018-11-29T16:03:34.614Z,55.65
2018-11-29T16:06:20.846Z,54.94
2018-11-29T16:08:53.536Z,55.43
2018-11-29T16:12:25.820Z,55.67
2018-11-29T16:14:58.391Z,55.64
2018-11-29T16:17:37.935Z,55.54
2018-11-29T16:20:17.493Z,55.23
2018-11-29T16:22:58.504Z,55.77
2018-11-29T16:25:31.840Z,55.66
2018-11-29T16:28:08.515Z,55.56
2018-11-29T16:30:51.845Z,55.58
2018-11-29T16:33:27.396Z,55.64
2018-11-29T16:36:19.282Z,56.84
2018-11-29T16:38:53.731Z,56.85
2018-11-29T16:41:35.338Z,56.74
2018-11-29T16:44:15.320Z,57.50
2018-11-29T16:46:52.565Z,56.74
2018-11-29T16:49:27.902Z,57.84
2018-11-29T16:52:03.762Z,57.66
2018-11-29T16:54:34.988Z,57.15
2018-11-29T16:57:10.446Z,57.10
2018-11-29T16:59:46.128Z,57.35
2018-11-29T17:02:19.168Z,57.74
2018-11-29T17:04:54.897Z,56.93
2018-11-29T17:07:31.185Z,57.26
2018-11-29T17:10:04.381Z,56.90
2018-11-29T17:12:46.520Z,57.10
2018-11-29T17:15:33.599Z,58.45
2018-11-29T17:18:12.851Z,58.35
2018-11-29T17:20:47.546Z,58.55
2018-11-29T17:23:22.537Z,58.49
2018-11-29T17:25:54.106Z,58.07
2018-11-29T17:28:29.086Z,57.82
2018-11-29T17:31:08.068Z,57.69
2018-11-29T17:33:45.905Z,57.44
2018-11-29T17:36:18.676Z,58.02
2018-11-29T17:38:50.849Z,57.10
2018-11-29T17:41:27.338Z,57.35
2018-11-29T17:44:01.723Z,57.65
2018-11-29T17:46:34.021Z,57.92
2018-11-29T17:49:11.973Z,57.84
2018-11-29T17:51:47.955Z,57.86
2018-11-29T17:54:21.969Z,57.70
2018-11-29T17:56:55.760Z,57.38
2018-11-29T17:59:35.141Z,57.33
2018-11-29T18:02:13.429Z,58.38
2018-11-29T18:04:52.753Z,57.36
2018-11-29T18:07:30.272Z,57.52
2018-11-29T18:10:29.004Z,57.46
2018-11-29T18:13:24.765Z,57.73
2018-11-29T18:16:08.508Z,57.65
2018-11-29T18:18:41.287Z,58.38
2018-11-29T18:21:15.626Z,57.18
2018-11-29T18:23:49.399Z,57.79
2018-11-29T18:26:31.780Z,57.85
2018-11-29T18:29:17.313Z,57.83
2018-11-29T18:31:49.495Z,57.13
2018-11-29T18:34:26.287Z,57.77
2018-11-29T18:36:59.419Z,57.46
2018-11-29T18:39:36.822Z,57.99
2018-11-29T18:42:20.377Z,58.33
2018-11-29T18:44:56.466Z,57.80
2018-11-29T18:47:28.451Z,58.08
2018-11-29T18:50:00.242Z,58.22
2018-11-29T18:52:36.375Z,57.48
2018-11-29T18:55:12.730Z,57.66
2018-11-29T18:57:51.531Z,57.49
2018-11-29T19:00:30.525Z,58.03
2018-11-29T19:03:19.448Z,58.13
2018-11-29T19:05:57.508Z,57.81
2018-11-29T19:08:35.107Z,58.22
2018-11-29T19:11:13.986Z,57.74
2018-11-29T19:13:49.858Z,57.83
2018-11-29T19:16:22.927Z,58.31
2018-11-29T19:19:01.514Z,57.49
2018-11-29T19:21:42.749Z,59.02
2018-11-29T19:24:26.082Z,58.09
2018-11-29T19:27:09.617Z,58.32
2018-11-29T19:29:43.974Z,58.05
2018-11-29T19:32:26.746Z,58.80
2018-11-29T19:35:00.342Z,58.19
2018-11-29T19:37:48.073Z,59.08
2018-11-29T19:40:31.137Z,59.21
2018-11-29T19:43:08.730Z,58.60
2018-11-29T19:45:42.007Z,58.73
2018-11-29T19:48:28.027Z,58.82
2018-11-29T19:51:06.533Z,58.23
2018-11-29T19:53:48.179Z,58.64
2018-11-29T19:56:35.244Z,58.93
2018-11-29T19:59:22.432Z,58.90
2018-11-29T20:01:57.160Z,59.25
2018-11-29T20:04:33.099Z,59.29
2018-11-29T20:07:11.437Z,59.52
2018-11-29T20:09:50.320Z,59.27
2018-11-29T20:12:24.214Z,59.95
2018-11-29T20:15:10.365Z,59.25
2018-11-29T20:17:46.207Z,60.03
2018-11-29T20:20:26.529Z,59.68
2018-11-29T20:23:11.580Z,60.14
2018-11-29T20:25:48.889Z,59.92
2018-11-29T20:28:22.203Z,59.66
2018-11-29T20:30:56.688Z,60.04
2018-11-29T20:33:28.889Z,59.75
2018-11-29T20:36:04.715Z,60.40
2018-11-29T20:38:39.331Z,60.61
2018-11-29T20:41:11.678Z,60.49
2018-11-29T20:43:44.766Z,60.36
2018-11-29T20:46:18.365Z,60.80
2018-11-29T20:48:54.980Z,60.63
2018-11-29T20:51:27.140Z,60.72
2018-11-29T20:55:11.463Z,60.83
2018-11-29T20:57:44.276Z,61.49
2018-11-29T21:00:15.887Z,60.79
2018-11-29T21:02:47.728Z,60.94
2018-11-29T21:05:21.474Z,61.32
2018-11-29T21:07:55.469Z,61.37
2018-11-29T21:10:27.004Z,61.40
2018-11-29T21:13:02.470Z,60.59
2018-11-29T21:15:36.065Z,61.49
2018-11-29T21:18:19.234Z,61.56
2018-11-29T21:21:01.346Z,61.96
2018-11-29T21:23:38.575Z,62.04
2018-11-29T21:26:14.738Z,61.42
2018-11-29T21:29:02.563Z,61.85
2018-11-29T21:31:44.202Z,61.80
2018-11-29T21:34:39.524Z,61.50
2018-11-29T21:37:14.577Z,61.80
2018-11-29T21:39:53.158Z,62.41
2018-11-29T21:42:27.552Z,62.05
2018-11-29T21:45:03.338Z,61.99
2018-11-29T21:47:38.319Z,62.04
2018-11-29T21:50:10.385Z,62.96
2018-11-29T21:52:41.466Z,62.36
2018-11-29T21:55:13.310Z,61.75
2018-11-29T21:57:57.124Z,62.30
2018-11-29T22:00:29.569Z,62.49
2018-11-29T22:03:04.862Z,61.80
2018-11-29T22:05:43.364Z,62.34
2018-11-29T22:08:15.847Z,62.24
2018-11-29T22:13:18.273Z,61.60
2018-11-29T22:15:51.707Z,61.94
2018-11-29T22:18:25.823Z,62.14
2018-11-29T22:21:04.638Z,62.55
2018-11-29T22:23:36.899Z,63.03
2018-11-29T22:26:16.379Z,62.05
2018-11-29T22:28:48.581Z,62.80
2018-11-29T22:31:22.819Z,62.71
2018-11-29T22:33:54.293Z,63.20
2018-11-29T22:36:29.828Z,62.22
2018-11-29T22:39:02.504Z,62.38
2018-11-29T22:41:33.847Z,62.58
2018-11-29T22:44:11.039Z,62.03
2018-11-29T22:46:45.761Z,61.09
2018-11-29T22:49:15.029Z,62.13
2018-11-29T22:51:47.436Z,61.47
2018-11-29T22:54:19.342Z,61.63
2018-11-29T22:56:59.326Z,61.57
2018-11-29T22:59:31.882Z,62.07
2018-11-29T23:02:08.326Z,62.07
2018-11-29T23:04:38.506Z,62.10
2018-11-29T23:07:10.529Z,61.56
2018-11-29T23:09:44.670Z,62.39
2018-11-29T23:12:22.717Z,62.35
2018-11-29T23:14:56.051Z,62.15
2018-11-29T23:17:28.352Z,61.74
2018-11-29T23:20:00.367Z,62.30
2018-11-29T23:22:32.374Z,61.78
2018-11-29T23:25:05.443Z,62.52
2018-11-29T23:27:36.405Z,62.00
2018-11-29T23:30:18.075Z,62.64
2018-11-29T23:32:49.755Z,63.35
2018-11-29T23:35:20.864Z,62.30
2018-11-29T23:37:53.573Z,61.69
2018-11-29T23:40:23.954Z,62.33
2018-11-29T23:42:54.933Z,61.68
2018-11-29T23:45:38.861Z,61.89
2018-11-29T23:48:09.580Z,61.88
2018-11-29T23:50:42.289Z,61.80
2018-11-29T23:53:16.991Z,61.56
2018-11-29T23:55:59.437Z,61.86
2018-11-29T23:58:30.803Z,62.23
